createdAt,value
2023-06-19T00:00:47.441Z,24.50
2023-06-19T00:01:50.460Z,25.00
2023-06-19T00:02:54.207Z,21.36
2023-06-19T00:03:57.202Z,26.10
2023-06-19T00:05:00.670Z,23.70
2023-06-19T00:06:04.076Z,25.70
2023-06-19T00:07:06.939Z,28.00
2023-06-19T00:08:10.129Z,25.90
2023-06-19T00:09:15.715Z,22.40
2023-06-19T00:10:18.372Z,25.60
2023-06-19T00:11:21.319Z,21.45
2023-06-19T00:12:24.141Z,25.73
2023-06-19T00:13:26.689Z,25.73
2023-06-19T00:14:29.518Z,27.50
2023-06-19T00:15:32.504Z,25.40
2023-06-19T00:16:35.372Z,24.40
2023-06-19T00:17:38.257Z,27.64
2023-06-19T00:18:41.845Z,23.60
2023-06-19T00:19:45.374Z,28.80
2023-06-19T00:20:48.265Z,27.40
2023-06-19T00:21:51.114Z,31.10
2023-06-19T00:22:53.910Z,27.55
2023-06-19T00:23:57.128Z,28.30
2023-06-19T00:25:00.483Z,26.40
2023-06-19T00:26:03.658Z,23.20
2023-06-19T00:27:07.570Z,28.50
2023-06-19T00:28:12.361Z,23.09
2023-06-19T00:29:15.350Z,28.60
2023-06-19T00:30:18.388Z,27.70
2023-06-19T00:31:21.535Z,23.80
2023-06-19T00:32:26.094Z,27.70
2023-06-19T00:33:29.733Z,24.50
2023-06-19T00:34:32.701Z,28.50
2023-06-19T00:35:35.592Z,26.18
2023-06-19T00:36:40.740Z,24.80
2023-06-19T00:37:45.135Z,26.50
2023-06-19T00:38:51.332Z,24.20
2023-06-19T00:39:54.208Z,27.60
2023-06-19T00:40:57.624Z,26.30
2023-06-19T00:42:01.113Z,27.80
2023-06-19T00:43:04.021Z,28.60
2023-06-19T00:44:06.958Z,28.70
2023-06-19T00:45:12.614Z,26.36
2023-06-19T00:46:16.424Z,24.40
2023-06-19T00:47:19.463Z,26.90
2023-06-19T00:48:23.375Z,28.00
2023-06-19T00:49:27.751Z,25.50
2023-06-19T00:50:30.731Z,23.00
2023-06-19T00:51:34.674Z,26.30
2023-06-19T00:52:37.440Z,22.70
2023-06-19T00:53:40.371Z,27.70
2023-06-19T00:54:44.223Z,26.55
2023-06-19T00:55:48.175Z,25.50
2023-06-19T00:56:52.275Z,19.50
2023-06-19T00:57:55.272Z,26.00
2023-06-19T00:58:58.494Z,23.50
2023-06-19T01:00:03.887Z,23.40
2023-06-19T01:01:09.292Z,25.30
2023-06-19T01:02:12.693Z,24.30
2023-06-19T01:03:18.824Z,23.40
2023-06-19T01:04:34.841Z,17.90
2023-06-19T01:05:37.531Z,24.20
2023-06-19T01:06:50.034Z,20.27
2023-06-19T01:07:59.470Z,22.90
2023-06-19T01:09:05.439Z,25.20
2023-06-19T01:10:11.701Z,23.10
2023-06-19T01:11:26.132Z,24.00
2023-06-19T01:12:25.755Z,21.60
2023-06-19T01:13:44.674Z,25.70
2023-06-19T01:14:57.407Z,23.80
2023-06-19T01:16:00.487Z,23.60
2023-06-19T01:17:05.410Z,22.40
2023-06-19T01:18:08.595Z,20.80
2023-06-19T01:19:11.942Z,22.18
2023-06-19T01:20:16.985Z,21.90
2023-06-19T01:21:20.940Z,24.00
2023-06-19T01:22:29.205Z,23.91
2023-06-19T01:23:33.971Z,25.80
2023-06-19T01:24:37.330Z,18.30
2023-06-19T01:25:40.622Z,24.60
2023-06-19T01:26:46.194Z,21.50
2023-06-19T01:27:50.044Z,22.70
2023-06-19T01:28:52.769Z,22.00
2023-06-19T01:29:55.625Z,23.00
2023-06-19T01:30:58.549Z,22.73
2023-06-19T01:33:22.970Z,19.80
2023-06-19T01:34:26.357Z,20.00
2023-06-19T01:35:32.180Z,22.10
2023-06-19T01:36:35.377Z,23.60
2023-06-19T01:37:41.342Z,20.50
2023-06-19T01:38:44.407Z,22.10
2023-06-19T01:39:47.760Z,21.60
2023-06-19T01:40:50.921Z,19.10
2023-06-19T01:41:53.523Z,20.40
2023-06-19T01:42:57.851Z,21.82
2023-06-19T01:44:01.671Z,20.20
2023-06-19T01:45:05.779Z,24.10
2023-06-19T01:46:10.145Z,21.30
2023-06-19T01:47:13.974Z,20.40
2023-06-19T01:48:18.515Z,22.20
2023-06-19T01:49:21.205Z,23.36
2023-06-19T01:50:25.036Z,20.30
2023-06-19T01:51:29.353Z,21.50
2023-06-19T01:52:32.396Z,19.20
2023-06-19T01:53:35.492Z,23.00
2023-06-19T01:54:39.483Z,18.60
2023-06-19T01:55:55.612Z,21.70
2023-06-19T01:56:59.235Z,22.10
2023-06-19T01:58:02.935Z,23.70
2023-06-19T01:59:06.979Z,21.10
2023-06-19T02:00:11.033Z,21.60
2023-06-19T02:01:21.708Z,25.90
2023-06-19T02:02:25.059Z,19.40
2023-06-19T02:03:28.012Z,21.00
2023-06-19T02:04:30.935Z,21.70
2023-06-19T02:05:34.959Z,21.20
2023-06-19T02:06:38.077Z,21.00
2023-06-19T02:07:41.931Z,20.60
2023-06-19T02:08:44.635Z,20.70
2023-06-19T02:09:49.311Z,22.30
2023-06-19T02:10:52.415Z,21.50
2023-06-19T02:11:56.044Z,20.70
2023-06-19T02:12:59.911Z,21.90
2023-06-19T02:14:04.214Z,22.00
2023-06-19T02:15:08.124Z,20.20
2023-06-19T02:16:11.388Z,19.80
2023-06-19T02:17:14.296Z,21.40
2023-06-19T02:18:17.539Z,22.40
2023-06-19T02:19:20.633Z,20.90
2023-06-19T02:20:27.338Z,19.40
2023-06-19T02:21:32.709Z,21.90
2023-06-19T02:22:35.479Z,22.09
2023-06-19T02:23:38.489Z,18.70
2023-06-19T02:24:44.386Z,19.20
2023-06-19T02:25:48.575Z,18.60
2023-06-19T02:26:53.042Z,19.89
2023-06-19T02:27:56.104Z,16.80
2023-06-19T02:28:59.700Z,14.45
2023-06-19T02:30:03.762Z,22.10
2023-06-19T02:31:06.583Z,18.90
2023-06-19T02:32:09.325Z,18.90
2023-06-19T02:33:12.248Z,20.55
2023-06-19T02:34:15.475Z,14.10
2023-06-19T02:35:18.563Z,18.20
2023-06-19T02:36:22.343Z,20.10
2023-06-19T02:37:25.902Z,21.00
2023-06-19T02:38:30.024Z,18.70
2023-06-19T02:39:33.096Z,19.40
2023-06-19T02:40:36.343Z,19.10
2023-06-19T02:41:39.318Z,17.36
2023-06-19T02:42:42.230Z,21.00
2023-06-19T02:43:47.387Z,17.40
2023-06-19T02:44:50.323Z,17.50
2023-06-19T02:45:53.516Z,18.00
2023-06-19T02:46:57.015Z,17.70
2023-06-19T02:47:59.817Z,18.50
2023-06-19T02:49:02.869Z,16.90
2023-06-19T02:50:06.996Z,16.80
2023-06-19T02:51:10.142Z,16.10
2023-06-19T02:52:13.109Z,17.50
2023-06-19T02:53:17.554Z,17.36
2023-06-19T02:54:22.380Z,18.10
2023-06-19T02:55:25.402Z,16.10
2023-06-19T02:56:29.365Z,16.00
2023-06-19T02:57:33.811Z,15.20
2023-06-19T02:58:38.045Z,13.70
2023-06-19T02:59:40.687Z,16.70
2023-06-19T03:00:45.504Z,18.00
2023-06-19T03:01:48.501Z,18.60
2023-06-19T03:02:51.603Z,17.70
2023-06-19T03:03:54.680Z,18.10
2023-06-19T03:06:10.609Z,19.10
2023-06-19T03:07:17.186Z,18.10
2023-06-19T03:08:21.065Z,17.50
2023-06-19T03:09:24.042Z,17.80
2023-06-19T03:10:27.538Z,17.70
2023-06-19T03:11:31.737Z,18.80
2023-06-19T03:12:34.612Z,16.30
2023-06-19T03:13:54.428Z,16.70
2023-06-19T03:14:57.521Z,14.80
2023-06-19T03:16:00.815Z,16.40
2023-06-19T03:17:04.649Z,17.60
2023-06-19T03:18:10.463Z,15.10
2023-06-19T03:19:16.021Z,17.20
2023-06-19T03:20:19.001Z,17.10
2023-06-19T03:21:28.330Z,17.50
2023-06-19T03:22:33.061Z,17.10
2023-06-19T03:23:36.535Z,15.20
2023-06-19T03:24:39.717Z,17.30
2023-06-19T03:25:50.689Z,18.60
2023-06-19T03:26:53.772Z,17.00
2023-06-19T03:27:56.915Z,16.60
2023-06-19T03:29:00.077Z,19.30
2023-06-19T03:30:08.619Z,16.80
2023-06-19T03:31:13.758Z,18.10
2023-06-19T03:32:17.588Z,18.40
2023-06-19T03:33:21.425Z,17.50
2023-06-19T03:34:24.349Z,17.70
2023-06-19T03:35:27.736Z,17.50
2023-06-19T03:36:31.701Z,18.55
2023-06-19T03:37:36.341Z,16.40
2023-06-19T03:38:39.301Z,17.60
2023-06-19T03:39:42.956Z,16.60
2023-06-19T03:40:47.372Z,17.90
2023-06-19T03:41:50.561Z,16.60
2023-06-19T03:42:54.141Z,18.90
2023-06-19T03:43:56.967Z,17.64
2023-06-19T03:45:07.747Z,12.70
2023-06-19T03:46:12.318Z,19.70
2023-06-19T03:47:16.740Z,16.20
2023-06-19T03:48:19.630Z,16.20
2023-06-19T03:49:22.624Z,16.80
2023-06-19T03:50:27.559Z,19.67
2023-06-19T03:51:30.760Z,17.40
2023-06-19T03:52:34.176Z,12.40
2023-06-19T03:53:37.401Z,13.70
2023-06-19T03:54:40.163Z,17.50
2023-06-19T03:55:45.180Z,18.91
2023-06-19T03:56:48.432Z,9.40
2023-06-19T03:57:51.568Z,16.70
2023-06-19T03:58:54.543Z,17.00
2023-06-19T03:59:59.153Z,16.70
2023-06-19T04:01:02.556Z,18.70
2023-06-19T04:02:05.934Z,16.10
2023-06-19T04:03:10.275Z,19.70
2023-06-19T04:04:13.534Z,16.80
2023-06-19T04:05:16.668Z,17.00
2023-06-19T04:06:20.091Z,16.70
2023-06-19T04:07:24.082Z,16.90
2023-06-19T04:08:28.353Z,21.50
2023-06-19T04:09:31.197Z,17.90
2023-06-19T04:10:35.965Z,18.45
2023-06-19T04:11:39.047Z,16.80
2023-06-19T04:12:41.677Z,26.40
2023-06-19T04:13:45.476Z,23.64
2023-06-19T04:16:02.216Z,27.40
2023-06-19T04:17:06.209Z,26.70
2023-06-19T04:18:09.351Z,25.40
2023-06-19T04:19:14.295Z,32.30
2023-06-19T04:20:17.792Z,28.30
2023-06-19T04:21:22.566Z,29.50
2023-06-19T04:22:25.646Z,24.20
2023-06-19T04:23:29.886Z,25.10
2023-06-19T04:24:32.838Z,27.80
2023-06-19T04:25:36.642Z,26.36
2023-06-19T04:26:39.791Z,28.00
2023-06-19T04:28:57.430Z,22.90
2023-06-19T04:30:01.361Z,22.64
2023-06-19T04:31:05.352Z,24.40
2023-06-19T04:32:10.149Z,22.30
2023-06-19T04:33:13.011Z,23.10
2023-06-19T04:34:21.408Z,23.70
2023-06-19T04:35:24.289Z,20.20
2023-06-19T04:36:27.298Z,26.20
2023-06-19T04:37:30.276Z,18.36
2023-06-19T04:38:32.986Z,22.80
2023-06-19T04:39:35.907Z,20.36
2023-06-19T04:40:39.342Z,23.10
2023-06-19T04:42:58.576Z,21.80
2023-06-19T04:44:03.209Z,21.20
2023-06-19T04:45:07.700Z,20.30
2023-06-19T04:46:10.945Z,21.70
2023-06-19T04:47:14.337Z,22.30
2023-06-19T04:48:17.371Z,20.80
2023-06-19T04:49:23.968Z,20.00
2023-06-19T04:50:26.310Z,21.50
2023-06-19T04:51:30.159Z,18.10
2023-06-19T04:52:34.480Z,18.80
2023-06-19T04:53:37.540Z,21.00
2023-06-19T04:54:40.712Z,18.27
2023-06-19T04:55:44.153Z,19.60
2023-06-19T04:56:47.015Z,17.60
2023-06-19T04:57:49.595Z,13.90
2023-06-19T05:00:06.953Z,22.10
2023-06-19T05:01:11.223Z,19.50
2023-06-19T05:02:14.840Z,17.80
2023-06-19T05:03:19.084Z,19.70
2023-06-19T05:04:23.084Z,18.60
2023-06-19T05:06:43.281Z,19.30
2023-06-19T05:07:48.258Z,19.50
2023-06-19T05:10:05.276Z,20.80
2023-06-19T05:11:08.012Z,18.60
2023-06-19T05:12:13.553Z,15.20
2023-06-19T05:13:18.405Z,16.40
2023-06-19T05:14:21.287Z,18.10
2023-06-19T05:15:24.164Z,16.20
2023-06-19T05:16:27.328Z,17.91
2023-06-19T05:17:30.837Z,16.60
2023-06-19T05:18:34.696Z,17.70
2023-06-19T05:19:38.512Z,18.00
2023-06-19T05:20:41.899Z,18.80
2023-06-19T05:21:44.772Z,18.80
2023-06-19T05:22:47.638Z,16.45
2023-06-19T05:23:52.320Z,17.18
2023-06-19T05:24:56.402Z,17.40
2023-06-19T05:25:59.180Z,10.60
2023-06-19T05:27:02.188Z,15.36
2023-06-19T05:28:06.307Z,17.50
2023-06-19T05:29:09.607Z,17.80
2023-06-19T05:30:14.672Z,18.70
2023-06-19T05:31:18.989Z,17.50
2023-06-19T05:32:22.019Z,15.80
2023-06-19T05:33:26.051Z,15.27
2023-06-19T05:34:29.198Z,18.60
2023-06-19T05:35:33.542Z,16.00
2023-06-19T05:36:36.531Z,17.60
2023-06-19T05:37:42.745Z,18.80
2023-06-19T05:38:45.415Z,20.40
2023-06-19T05:39:49.297Z,17.27
2023-06-19T05:40:53.185Z,18.00
2023-06-19T05:41:56.057Z,15.00
2023-06-19T05:42:58.982Z,18.82
2023-06-19T05:44:02.346Z,15.90
2023-06-19T05:45:06.109Z,19.90
2023-06-19T05:46:09.409Z,17.60
2023-06-19T05:47:13.131Z,17.40
2023-06-19T05:48:16.367Z,18.80
2023-06-19T05:49:19.460Z,21.30
2023-06-19T05:50:36.123Z,18.00
2023-06-19T05:51:39.245Z,17.60
2023-06-19T05:52:44.293Z,18.27
2023-06-19T05:53:48.348Z,19.10
2023-06-19T05:54:51.651Z,14.20
2023-06-19T05:55:54.495Z,15.50
2023-06-19T05:56:58.430Z,17.70
2023-06-19T05:58:01.394Z,16.40
2023-06-19T05:59:05.091Z,17.64
2023-06-19T06:00:11.362Z,16.00
2023-06-19T06:01:15.454Z,14.50
2023-06-19T06:02:19.399Z,13.45
2023-06-19T06:03:22.049Z,16.90
2023-06-19T06:04:24.957Z,16.55
2023-06-19T06:05:28.192Z,15.64
2023-06-19T06:06:31.058Z,14.00
2023-06-19T06:07:36.160Z,16.64
2023-06-19T06:08:38.565Z,16.90
2023-06-19T06:09:41.339Z,15.10
2023-06-19T06:10:44.527Z,15.60
2023-06-19T06:11:47.622Z,17.70
2023-06-19T06:12:51.163Z,14.30
2023-06-19T06:13:53.826Z,16.50
2023-06-19T06:14:57.398Z,14.09
2023-06-19T06:16:00.143Z,17.20
2023-06-19T06:17:05.247Z,16.10
2023-06-19T06:18:13.102Z,16.60
2023-06-19T06:19:16.400Z,15.40
2023-06-19T06:20:20.089Z,14.30
2023-06-19T06:21:24.229Z,16.10
2023-06-19T06:22:27.371Z,16.90
2023-06-19T06:23:30.266Z,17.45
2023-06-19T06:24:33.416Z,16.40
2023-06-19T06:25:36.354Z,16.09
2023-06-19T06:26:39.793Z,15.80
2023-06-19T06:27:43.068Z,16.10
2023-06-19T06:28:46.277Z,15.70
2023-06-19T06:29:49.948Z,16.00
2023-06-19T06:30:52.907Z,15.80
2023-06-19T06:32:07.163Z,14.80
2023-06-19T06:33:11.312Z,17.10
2023-06-19T06:34:14.451Z,14.60
2023-06-19T06:35:17.459Z,15.10
2023-06-19T06:36:34.064Z,14.30
2023-06-19T06:37:25.975Z,16.40
2023-06-19T06:38:29.458Z,15.70
2023-06-19T06:39:32.307Z,15.40
2023-06-19T06:40:35.797Z,16.09
2023-06-19T06:41:39.711Z,15.90
2023-06-19T06:42:42.572Z,15.90
2023-06-19T06:43:45.329Z,16.27
2023-06-19T06:44:48.640Z,16.30
2023-06-19T06:45:51.832Z,16.20
2023-06-19T06:46:55.950Z,15.80
2023-06-19T06:48:00.559Z,14.60
2023-06-19T06:49:04.114Z,15.20
2023-06-19T06:50:08.982Z,16.40
2023-06-19T06:51:11.785Z,15.10
2023-06-19T06:52:14.473Z,14.91
2023-06-19T06:53:17.291Z,15.91
2023-06-19T06:54:21.078Z,16.18
2023-06-19T06:55:24.693Z,15.60
2023-06-19T06:56:27.581Z,15.10
2023-06-19T06:57:32.510Z,15.70
2023-06-19T06:58:35.390Z,17.70
2023-06-19T06:59:38.607Z,18.09
2023-06-19T07:00:41.697Z,15.00
2023-06-19T07:01:45.167Z,15.60
2023-06-19T07:02:49.882Z,14.80
2023-06-19T07:03:52.794Z,18.90
2023-06-19T07:04:55.661Z,17.73
2023-06-19T07:05:59.005Z,16.50
2023-06-19T07:07:03.953Z,16.80
2023-06-19T07:08:07.214Z,15.30
2023-06-19T07:09:11.139Z,15.20
2023-06-19T07:10:14.447Z,15.20
2023-06-19T07:11:17.011Z,16.09
2023-06-19T07:12:20.598Z,16.50
2023-06-19T07:13:24.679Z,14.70
2023-06-19T07:14:28.243Z,16.20
2023-06-19T07:15:31.842Z,16.10
2023-06-19T07:16:35.312Z,15.40
2023-06-19T07:17:39.996Z,16.09
2023-06-19T07:18:42.679Z,13.90
2023-06-19T07:19:46.710Z,14.90
2023-06-19T07:20:50.525Z,18.90
2023-06-19T07:21:53.680Z,16.50
2023-06-19T07:22:56.409Z,18.10
2023-06-19T07:23:59.040Z,16.70
2023-06-19T07:25:02.045Z,16.40
2023-06-19T07:26:04.829Z,16.55
2023-06-19T07:27:07.643Z,16.73
2023-06-19T07:28:11.605Z,14.90
2023-06-19T07:29:15.449Z,16.10
2023-06-19T07:30:19.336Z,15.20
2023-06-19T07:31:22.243Z,16.90
2023-06-19T07:32:25.051Z,12.45
2023-06-19T07:33:27.824Z,17.36
2023-06-19T07:34:30.642Z,15.30
2023-06-19T07:35:34.543Z,15.10
2023-06-19T07:36:39.273Z,14.70
2023-06-19T07:37:42.116Z,15.80
2023-06-19T07:38:46.168Z,17.20
2023-06-19T07:39:52.921Z,16.40
2023-06-19T07:40:55.761Z,16.70
2023-06-19T07:41:58.648Z,16.91
2023-06-19T07:43:01.958Z,18.18
2023-06-19T07:44:05.674Z,17.30
2023-06-19T07:45:10.046Z,17.80
2023-06-19T07:46:13.326Z,15.90
2023-06-19T07:47:17.854Z,16.91
2023-06-19T07:48:20.749Z,17.20
2023-06-19T07:49:24.860Z,13.10
2023-06-19T07:50:29.108Z,16.80
2023-06-19T07:51:32.621Z,17.60
2023-06-19T07:52:35.664Z,15.20
2023-06-19T07:53:40.258Z,14.40
2023-06-19T07:54:52.617Z,19.00
2023-06-19T07:55:56.099Z,13.40
2023-06-19T07:56:59.216Z,16.40
2023-06-19T07:58:02.502Z,17.00
2023-06-19T07:59:06.308Z,17.80
2023-06-19T08:00:13.795Z,17.30
2023-06-19T08:01:17.649Z,17.20
2023-06-19T08:02:21.086Z,15.80
2023-06-19T08:03:24.899Z,17.90
2023-06-19T08:04:28.021Z,19.80
2023-06-19T08:05:30.888Z,17.09
2023-06-19T08:06:34.278Z,17.50
2023-06-19T08:07:37.304Z,14.82
2023-06-19T08:08:40.165Z,17.70
2023-06-19T08:09:42.965Z,16.45
2023-06-19T08:10:47.051Z,19.36
2023-06-19T08:11:50.093Z,19.30
2023-06-19T08:12:54.054Z,17.30
2023-06-19T08:13:58.998Z,18.20
2023-06-19T08:15:02.736Z,14.00
2023-06-19T08:16:07.375Z,17.90
2023-06-19T08:17:10.916Z,16.00
2023-06-19T08:18:14.771Z,15.70
2023-06-19T08:19:18.641Z,18.30
2023-06-19T08:20:22.400Z,17.00
2023-06-19T08:21:26.097Z,17.30
2023-06-19T08:22:29.874Z,15.80
2023-06-19T08:23:32.882Z,15.40
2023-06-19T08:24:37.289Z,15.40
2023-06-19T08:25:40.690Z,12.20
2023-06-19T08:26:43.778Z,17.60
2023-06-19T08:27:46.559Z,14.27
2023-06-19T08:28:49.936Z,17.00
2023-06-19T08:29:52.606Z,17.50
2023-06-19T08:30:55.994Z,18.00
2023-06-19T08:31:59.810Z,19.60
2023-06-19T08:33:03.858Z,16.90
2023-06-19T08:34:08.609Z,17.30
2023-06-19T08:35:11.469Z,16.20
2023-06-19T08:36:14.703Z,17.80
2023-06-19T08:37:18.970Z,17.64
2023-06-19T08:38:22.144Z,16.40
2023-06-19T08:39:27.932Z,18.91
2023-06-19T08:40:30.768Z,15.90
2023-06-19T08:41:33.788Z,17.09
2023-06-19T08:42:37.643Z,13.27
2023-06-19T08:43:42.303Z,18.90
2023-06-19T08:44:44.986Z,14.90
2023-06-19T08:47:10.954Z,16.70
2023-06-19T08:48:14.669Z,18.20
2023-06-19T08:49:17.633Z,15.20
2023-06-19T08:50:21.426Z,17.30
2023-06-19T08:51:26.089Z,16.40
2023-06-19T08:52:29.954Z,17.00
2023-06-19T08:53:35.090Z,18.10
2023-06-19T08:54:42.276Z,17.30
2023-06-19T08:55:44.934Z,17.60
2023-06-19T08:56:48.310Z,16.73
2023-06-19T08:57:53.517Z,16.70
2023-06-19T08:58:57.040Z,19.50
2023-06-19T08:59:59.906Z,12.00
2023-06-19T09:01:03.115Z,17.82
2023-06-19T09:02:07.395Z,18.00
2023-06-19T09:03:14.743Z,16.70
2023-06-19T09:04:17.327Z,16.80
2023-06-19T09:05:20.182Z,17.60
2023-06-19T09:06:24.101Z,17.90
2023-06-19T09:07:28.036Z,17.10
2023-06-19T09:08:31.062Z,16.50
2023-06-19T09:09:33.952Z,16.10
2023-06-19T09:10:37.361Z,16.40
2023-06-19T09:11:42.142Z,18.82
2023-06-19T09:12:47.147Z,17.70
2023-06-19T09:13:59.344Z,16.90
2023-06-19T09:15:02.180Z,16.50
2023-06-19T09:16:06.772Z,16.09
2023-06-19T09:17:15.275Z,15.90
2023-06-19T09:18:19.446Z,16.70
2023-06-19T09:19:22.406Z,16.10
2023-06-19T09:20:28.697Z,16.50
2023-06-19T09:21:31.764Z,17.10
2023-06-19T09:22:34.428Z,18.10
2023-06-19T09:23:37.488Z,11.40
2023-06-19T09:24:42.995Z,17.50
2023-06-19T09:25:51.976Z,16.20
2023-06-19T09:27:00.192Z,15.20
2023-06-19T09:28:04.624Z,15.80
2023-06-19T09:29:15.978Z,16.80
2023-06-19T09:30:19.166Z,18.90
2023-06-19T09:31:35.223Z,16.20
2023-06-19T09:32:38.141Z,18.80
2023-06-19T09:33:41.160Z,16.91
2023-06-19T09:34:44.350Z,16.70
2023-06-19T09:35:48.388Z,16.40
2023-06-19T09:36:51.603Z,16.00
2023-06-19T09:37:55.882Z,15.90
2023-06-19T09:39:00.111Z,17.80
2023-06-19T09:41:20.467Z,18.40
2023-06-19T09:42:32.579Z,16.80
2023-06-19T09:43:38.397Z,15.80
2023-06-19T09:44:46.317Z,16.60
2023-06-19T09:45:50.271Z,15.90
2023-06-19T09:46:54.131Z,16.30
2023-06-19T09:47:57.204Z,17.00
2023-06-19T09:49:02.593Z,18.00
2023-06-19T09:50:06.986Z,19.10
2023-06-19T09:51:17.292Z,17.20
2023-06-19T09:52:22.637Z,15.50
2023-06-19T09:53:25.326Z,19.10
2023-06-19T09:54:30.255Z,20.64
2023-06-19T09:55:33.619Z,14.70
2023-06-19T09:56:36.504Z,12.60
2023-06-19T09:57:39.898Z,15.27
2023-06-19T09:58:45.753Z,18.90
2023-06-19T09:59:50.355Z,16.90
2023-06-19T10:00:56.243Z,16.40
2023-06-19T10:01:59.696Z,17.30
2023-06-19T10:03:04.583Z,15.60
2023-06-19T10:04:08.717Z,18.70
2023-06-19T10:05:16.101Z,16.20
2023-06-19T10:06:20.675Z,19.30
2023-06-19T10:07:24.671Z,16.60
2023-06-19T10:08:34.970Z,18.90
2023-06-19T10:09:37.801Z,16.50
2023-06-19T10:10:49.322Z,16.60
2023-06-19T10:11:53.271Z,15.20
2023-06-19T10:13:00.827Z,18.70
2023-06-19T10:14:09.538Z,16.80
2023-06-19T10:15:24.265Z,17.50
2023-06-19T10:16:29.932Z,16.70
2023-06-19T10:17:32.064Z,16.00
2023-06-19T10:19:56.686Z,18.50
2023-06-19T10:20:59.725Z,15.40
2023-06-19T10:22:03.634Z,18.70
2023-06-19T10:23:18.973Z,16.60
2023-06-19T10:24:24.788Z,16.00
2023-06-19T10:25:32.609Z,19.20
2023-06-19T10:26:36.099Z,18.20
2023-06-19T10:27:39.118Z,18.00
2023-06-19T10:28:47.676Z,18.36
2023-06-19T10:29:58.933Z,16.50
2023-06-19T10:31:07.537Z,17.70
2023-06-19T10:32:10.308Z,17.90
2023-06-19T10:33:13.209Z,14.82
2023-06-19T10:34:16.333Z,18.82
2023-06-19T10:35:21.168Z,18.20
2023-06-19T10:36:26.382Z,18.30
2023-06-19T10:38:50.434Z,17.70
2023-06-19T10:41:09.984Z,20.90
2023-06-19T10:43:28.500Z,14.80
2023-06-19T10:44:31.862Z,17.70
2023-06-19T10:45:34.750Z,18.60
2023-06-19T10:46:37.797Z,16.50
2023-06-19T10:47:41.625Z,16.80
2023-06-19T10:48:45.584Z,18.50
2023-06-19T10:49:48.978Z,16.20
2023-06-19T10:50:54.149Z,19.00
2023-06-19T10:53:11.497Z,15.60
2023-06-19T10:54:15.510Z,18.90
2023-06-19T10:55:18.763Z,18.20
2023-06-19T10:56:22.954Z,18.10
2023-06-19T10:58:42.992Z,13.50
2023-06-19T10:59:46.973Z,16.30
2023-06-19T11:00:49.932Z,16.40
2023-06-19T11:03:06.058Z,17.20
2023-06-19T11:05:24.822Z,17.60
2023-06-19T11:06:28.174Z,18.00
2023-06-19T11:07:31.453Z,17.70
2023-06-19T11:10:00.238Z,18.70
2023-06-19T11:11:03.780Z,16.10
2023-06-19T11:12:08.605Z,18.90
2023-06-19T11:13:17.433Z,16.60
2023-06-19T11:14:20.642Z,15.10
2023-06-19T11:15:34.108Z,9.70
2023-06-19T11:16:45.159Z,18.70
2023-06-19T11:17:48.370Z,13.40
2023-06-19T11:20:13.846Z,19.90
2023-06-19T11:21:17.013Z,18.50
2023-06-19T11:22:20.869Z,18.60
2023-06-19T11:23:29.005Z,16.40
2023-06-19T11:24:31.595Z,17.20
2023-06-19T11:25:37.835Z,17.60
2023-06-19T11:27:58.878Z,17.80
2023-06-19T11:29:01.524Z,14.80
2023-06-19T11:30:08.601Z,19.91
2023-06-19T11:31:12.647Z,17.90
2023-06-19T11:32:18.060Z,19.60
2023-06-19T11:34:37.559Z,16.50
2023-06-19T11:35:42.160Z,17.60
2023-06-19T11:36:46.010Z,19.90
2023-06-19T11:39:05.870Z,16.90
2023-06-19T11:41:28.353Z,17.70
2023-06-19T11:42:32.681Z,15.10
2023-06-19T11:43:35.836Z,16.50
2023-06-19T11:44:57.901Z,15.00
2023-06-19T11:46:04.839Z,17.70
2023-06-19T11:47:09.345Z,16.10
2023-06-19T11:49:28.756Z,17.60
2023-06-19T11:50:34.242Z,16.20
2023-06-19T11:51:37.211Z,14.10
2023-06-19T11:52:41.663Z,17.90
2023-06-19T11:53:45.553Z,14.90
2023-06-19T11:54:49.234Z,16.30
2023-06-19T11:55:54.054Z,16.20
2023-06-19T11:56:58.770Z,14.50
2023-06-19T11:58:01.613Z,16.30
2023-06-19T11:59:04.749Z,13.91
2023-06-19T12:01:32.333Z,17.00
2023-06-19T12:02:35.298Z,15.70
2023-06-19T12:03:41.325Z,14.70
2023-06-19T12:04:44.162Z,17.30
2023-06-19T12:05:47.670Z,15.80
2023-06-19T12:06:51.514Z,14.30
2023-06-19T12:07:54.468Z,15.40
2023-06-19T12:08:57.278Z,14.30
2023-06-19T12:10:02.688Z,16.45
2023-06-19T12:11:08.506Z,16.20
2023-06-19T12:12:12.606Z,17.60
2023-06-19T12:13:15.384Z,17.00
2023-06-19T12:14:19.854Z,13.10
2023-06-19T12:15:23.331Z,16.80
2023-06-19T12:16:28.918Z,15.10
2023-06-19T12:17:32.028Z,15.50
2023-06-19T12:18:36.099Z,16.10
2023-06-19T12:19:40.006Z,7.90
2023-06-19T12:20:43.398Z,19.50
2023-06-19T12:21:46.922Z,16.10
2023-06-19T12:22:50.250Z,15.10
2023-06-19T12:23:54.007Z,9.80
2023-06-19T12:24:56.834Z,14.60
2023-06-19T12:26:00.271Z,15.91
2023-06-19T12:27:03.660Z,15.30
2023-06-19T12:29:22.200Z,15.90
2023-06-19T12:30:25.708Z,13.82
2023-06-19T12:31:31.158Z,14.90
2023-06-19T12:32:34.314Z,16.60
2023-06-19T12:33:38.943Z,14.80
2023-06-19T12:34:43.865Z,15.80
2023-06-19T12:35:46.837Z,14.40
2023-06-19T12:36:50.651Z,13.30
2023-06-19T12:37:55.819Z,17.80
2023-06-19T12:38:59.167Z,15.60
2023-06-19T12:40:02.388Z,14.80
2023-06-19T12:41:06.336Z,13.30
2023-06-19T12:42:09.541Z,15.00
2023-06-19T12:43:12.833Z,12.60
2023-06-19T12:44:16.501Z,11.10
2023-06-19T12:45:19.244Z,14.30
2023-06-19T12:46:23.097Z,13.40
2023-06-19T12:47:25.763Z,14.90
2023-06-19T12:48:28.500Z,15.36
2023-06-19T12:49:32.102Z,16.30
2023-06-19T12:50:34.881Z,13.10
2023-06-19T12:51:38.389Z,16.50
2023-06-19T12:52:42.900Z,13.73
2023-06-19T12:53:46.144Z,13.90
2023-06-19T12:54:48.987Z,13.00
2023-06-19T12:57:13.265Z,16.20
2023-06-19T12:58:16.888Z,15.00
2023-06-19T12:59:20.147Z,15.30
2023-06-19T13:00:23.199Z,13.80
2023-06-19T13:01:26.843Z,15.90
2023-06-19T13:02:29.715Z,17.00
2023-06-19T13:03:32.659Z,16.20
2023-06-19T13:04:35.436Z,14.80
2023-06-19T13:05:38.467Z,15.60
2023-06-19T13:06:42.458Z,15.00
2023-06-19T13:07:45.273Z,17.20
2023-06-19T13:08:47.962Z,15.80
2023-06-19T13:09:50.711Z,17.09
2023-06-19T13:10:53.660Z,16.82
2023-06-19T13:11:57.616Z,16.70
2023-06-19T13:13:00.576Z,17.50
2023-06-19T13:14:03.369Z,24.09
2023-06-19T13:15:07.326Z,22.50
2023-06-19T13:16:12.995Z,32.90
2023-06-19T13:17:16.258Z,32.40
2023-06-19T13:18:19.568Z,25.80
2023-06-19T13:19:31.036Z,26.20
2023-06-19T13:20:33.884Z,26.00
2023-06-19T13:21:36.675Z,29.82
2023-06-19T13:22:40.326Z,31.80
2023-06-19T13:23:43.863Z,32.10
2023-06-19T13:24:46.953Z,39.30
2023-06-19T13:25:50.680Z,41.50
2023-06-19T13:26:55.272Z,29.70
2023-06-19T13:27:58.680Z,40.10
2023-06-19T13:29:01.435Z,38.00
2023-06-19T13:30:05.794Z,42.82
2023-06-19T13:31:08.792Z,33.60
2023-06-19T13:32:12.353Z,44.91
2023-06-19T13:33:15.133Z,42.60
2023-06-19T13:34:19.152Z,45.60
2023-06-19T13:35:23.893Z,42.30
2023-06-19T13:36:27.447Z,35.80
2023-06-19T13:37:30.976Z,38.30
2023-06-19T13:38:33.963Z,43.60
2023-06-19T13:39:36.994Z,43.18
2023-06-19T13:40:40.922Z,46.20
2023-06-19T13:41:44.390Z,42.80
2023-06-19T13:42:48.924Z,46.70
2023-06-19T13:43:54.643Z,47.60
2023-06-19T13:44:59.074Z,40.60
2023-06-19T13:46:04.088Z,43.30
2023-06-19T13:47:07.725Z,42.40
2023-06-19T13:48:10.716Z,44.00
2023-06-19T13:49:14.649Z,47.40
2023-06-19T13:51:33.368Z,40.80
2023-06-19T13:52:37.004Z,47.50
2023-06-19T13:53:40.300Z,44.00
2023-06-19T13:54:43.204Z,39.60
2023-06-19T13:55:47.413Z,44.00
2023-06-19T13:56:51.731Z,42.70
2023-06-19T13:57:54.418Z,42.00
2023-06-19T13:58:59.758Z,37.36
2023-06-19T14:00:03.661Z,40.20
2023-06-19T14:01:09.355Z,29.20
2023-06-19T14:02:12.791Z,30.20
2023-06-19T14:03:16.566Z,38.00
2023-06-19T14:04:20.168Z,34.90
2023-06-19T14:05:22.839Z,34.10
2023-06-19T14:06:27.574Z,30.40
2023-06-19T14:07:30.383Z,31.10
2023-06-19T14:08:33.431Z,33.82
2023-06-19T14:09:36.575Z,32.70
2023-06-19T14:10:39.626Z,35.70
2023-06-19T14:11:43.797Z,34.09
2023-06-19T14:12:47.230Z,32.90
2023-06-19T14:13:51.002Z,29.50
2023-06-19T14:14:54.902Z,28.70
2023-06-19T14:15:59.160Z,29.10
2023-06-19T14:17:02.716Z,28.70
2023-06-19T14:19:29.651Z,32.00
2023-06-19T14:20:34.878Z,30.70
2023-06-19T14:21:38.119Z,32.70
2023-06-19T14:22:41.319Z,32.30
2023-06-19T14:24:58.974Z,32.50
2023-06-19T14:26:02.759Z,29.60